Time;durP1;ratioP1;P1;durP2;ratioP2;P2;SDS_P1;SDS_P2;PMS_P1;PMS_P2;Temp;Humidity;BMP_temperature;BMP_pressure;BME280_temperature;BME280_humidity;BME280_pressure;Samples;Min_cycle;Max_cycle;Signal;HPM_P1;HPM_P2
2023/05/20 00:00:28;;;;;;;;;;;;;;;;;;6214132;22;19915;-92
2023/05/20 00:02:54;;;;;;;;;;;;;;;;;;6216839;22;19981;-91
2023/05/20 00:05:20;;;;;;;;;;;;;;;;;;6241108;22;20252;-91
2023/05/20 00:07:46;;;;;;;;;;;;;;;;;;6239689;22;19941;-91
2023/05/20 00:10:12;;;;;;;;;;;;;;;;;;6216282;22;19938;-91
2023/05/20 00:12:38;;;;;;;;;;;;;;;;;;6214849;22;19919;-91
2023/05/20 00:15:04;;;;;;;;;;;;;;;;;;6241238;22;19919;-90
2023/05/20 00:17:30;;;;;;;;;;;;;;;;;;6215680;22;19915;-90
2023/05/20 00:19:56;;;;;;;;;;;;;;;;;;6216453;22;19929;-91
2023/05/20 00:22:22;;;;;;;;;;;;;;;;;;6240528;22;19919;-91
2023/05/20 00:24:48;;;;;;;;;;;;;;;;;;6214178;22;19922;-91
2023/05/20 00:27:14;;;;;;;;;;;;;;;;;;6240771;22;19919;-90
2023/05/20 00:29:40;;;;;;;;;;;;;;;;;;6240507;22;19919;-91
2023/05/20 00:32:06;;;;;;;;;;;;;;;;;;6216832;22;19925;-90
2023/05/20 00:34:32;;;;;;;;;;;;;;;;;;6236971;22;19919;-92
2023/05/20 00:36:58;;;;;;;;;;;;;;;;;;6241530;22;20287;-91
2023/05/20 00:39:24;;;;;;;;;;;;;;;;;;6239279;22;19980;-91
2023/05/20 00:41:50;;;;;;;;;;;;;;;;;;6215646;22;19969;-92
2023/05/20 00:44:17;;;;;;;;;;;;;;;;;;6216083;22;20331;-91
2023/05/20 00:46:43;;;;;;;;;;;;;;;;;;6214329;22;19919;-91
2023/05/20 00:49:09;;;;;;;;;;;;;;;;;;6217022;22;20259;-90
2023/05/20 00:51:35;;;;;;;;;;;;;;;;;;6214052;22;19923;-91
2023/05/20 00:54:01;;;;;;;;;;;;;;;;;;6215748;22;19915;-91
2023/05/20 00:56:28;;;;;;;;;;;;;;;;;;6238305;22;19920;-91
2023/05/20 00:58:54;;;;;;;;;;;;;;;;;;6241261;22;19918;-92
2023/05/20 01:01:20;;;;;;;;;;;;;;;;;;6215794;22;20337;-91
2023/05/20 01:03:47;;;;;;;;;;;;;;;;;;6212558;22;19915;-91
2023/05/20 01:06:13;;;;;;;;;;;;;;;;;;6241328;22;20032;-91
2023/05/20 01:08:39;;;;;;;;;;;;;;;;;;6240185;22;20355;-91
2023/05/20 01:11:05;;;;;;;;;;;;;;;;;;6241340;22;19926;-91
2023/05/20 01:13:31;;;;;;;;;;;;;;;;;;6212211;22;19919;-90
2023/05/20 01:15:57;;;;;;;;;;;;;;;;;;6215191;22;19923;-91
2023/05/20 01:18:24;;;;;;;;;;;;;;;;;;6215581;22;19933;-92
2023/05/20 01:20:50;;;;;;;;;;;;;;;;;;6241660;22;20243;-91
2023/05/20 01:23:16;;;;;;;;;;;;;;;;;;6214969;22;20014;-91
2023/05/20 01:25:42;;;;;;;;;;;;;;;;;;6238559;22;19915;-92
2023/05/20 01:28:09;;;;;;;;;;;;;;;;;;6241057;22;19926;-90
2023/05/20 01:30:35;;;;;;;;;;;;;;;;;;6214922;22;19954;-92
2023/05/20 01:33:01;;;;;;;;;;;;;;;;;;6247866;22;19926;-91
2023/05/20 01:35:27;;;;;;;;;;;;;;;;;;6253801;22;19965;-91
2023/05/20 01:37:53;;;;;;;;;;;;;;;;;;6257352;22;19919;-91
2023/05/20 01:40:19;;;;;;;;;;;;;;;;;;6254502;22;19945;-91
2023/05/20 01:42:45;;;;;;;;;;;;;;;;;;6251212;22;19958;-91
2023/05/20 01:45:11;;;;;;;;;;;;;;;;;;6251619;22;19947;-91
2023/05/20 01:47:37;;;;;;;;;;;;;;;;;;6214725;22;19938;-91
2023/05/20 01:50:03;;;;;;;;;;;;;;;;;;6216874;22;19927;-91
2023/05/20 01:52:30;;;;;;;;;;;;;;;;;;6250167;22;19923;-91
2023/05/20 01:54:56;;;;;;;;;;;;;;;;;;6247776;22;19915;-91
2023/05/20 01:57:22;;;;;;;;;;;;;;;;;;6216526;22;19915;-91
2023/05/20 01:59:48;;;;;;;;;;;;;;;;;;6213617;22;20002;-92
2023/05/20 02:02:14;;;;;;;;;;;;;;;;;;6214972;22;19962;-91
2023/05/20 02:04:41;;;;;;;;;;;;;;;;;;6214179;22;19969;-91
2023/05/20 02:07:07;;;;;;;;;;;;;;;;;;6216942;22;20390;-91
2023/05/20 02:09:33;;;;;;;;;;;;;;;;;;6214314;22;19915;-91
2023/05/20 02:11:59;;;;;;;;;;;;;;;;;;6241374;22;19930;-91
2023/05/20 02:14:25;;;;;;;;;;;;;;;;;;6238339;22;19919;-91
2023/05/20 02:16:51;;;;;;;;;;;;;;;;;;6215018;22;19986;-91
2023/05/20 02:19:22;;;;;;;;;;;;;;;;;;6213204;22;20012;-92
2023/05/20 02:21:48;;;;;;;;;;;;;;;;;;6214743;22;19920;-91
2023/05/20 02:24:15;;;;;;;;;;;;;;;;;;6240941;22;19915;-92
2023/05/20 02:26:40;;;;;;;;;;;;;;;;;;6213589;22;19916;-91
2023/05/20 02:29:06;;;;;;;;;;;;;;;;;;6215834;22;19923;-90
2023/05/20 02:31:32;;;;;;;;;;;;;;;;;;6210580;22;19923;-91
2023/05/20 02:33:58;;;;;;;;;;;;;;;;;;6214040;22;20221;-91
2023/05/20 02:36:24;;;;;;;;;;;;;;;;;;6237883;22;19919;-91
2023/05/20 02:38:50;;;;;;;;;;;;;;;;;;6237464;22;20033;-91
2023/05/20 02:41:16;;;;;;;;;;;;;;;;;;6212853;22;19919;-91
2023/05/20 02:43:43;;;;;;;;;;;;;;;;;;6235795;22;19919;-91
2023/05/20 02:46:09;;;;;;;;;;;;;;;;;;6212040;22;20314;-91
2023/05/20 02:48:35;;;;;;;;;;;;;;;;;;6235863;22;19958;-91
2023/05/20 02:51:01;;;;;;;;;;;;;;;;;;6213507;22;20335;-91
2023/05/20 02:53:27;;;;;;;;;;;;;;;;;;6212406;22;20011;-91
2023/05/20 02:55:53;;;;;;;;;;;;;;;;;;6214965;22;19915;-91
2023/05/20 02:58:25;;;;;;;;;;;;;;;;;;6215208;22;19962;-91
2023/05/20 03:00:50;;;;;;;;;;;;;;;;;;6239738;22;19926;-91
2023/05/20 03:03:16;;;;;;;;;;;;;;;;;;6240420;22;19915;-92
2023/05/20 03:05:44;;;;;;;;;;;;;;;;;;6211916;22;19919;-91
2023/05/20 03:08:10;;;;;;;;;;;;;;;;;;6238241;22;19927;-90
2023/05/20 03:10:36;;;;;;;;;;;;;;;;;;6212744;22;19923;-91
2023/05/20 03:13:03;;;;;;;;;;;;;;;;;;6215056;22;19923;-91
2023/05/20 03:15:29;;;;;;;;;;;;;;;;;;6210714;22;20348;-91
2023/05/20 03:17:55;;;;;;;;;;;;;;;;;;6216168;22;20252;-91
2023/05/20 03:20:21;;;;;;;;;;;;;;;;;;6215555;22;19923;-90
2023/05/20 03:22:47;;;;;;;;;;;;;;;;;;6238376;22;20438;-91
2023/05/20 03:25:13;;;;;;;;;;;;;;;;;;6238423;22;20317;-91
2023/05/20 03:27:39;;;;;;;;;;;;;;;;;;6210722;22;20341;-90
2023/05/20 03:30:05;;;;;;;;;;;;;;;;;;6242719;22;19924;-91
2023/05/20 03:32:31;;;;;;;;;;;;;;;;;;6239938;22;20290;-92
2023/05/20 03:34:57;;;;;;;;;;;;;;;;;;6240464;22;19919;-91
2023/05/20 03:37:23;;;;;;;;;;;;;;;;;;6213290;22;19915;-91
2023/05/20 03:39:49;;;;;;;;;;;;;;;;;;6240383;22;19976;-91
2023/05/20 03:42:14;;;;;;;;;;;;;;;;;;6217395;22;19919;-91
2023/05/20 03:44:40;;;;;;;;;;;;;;;;;;6213503;22;19919;-91
2023/05/20 03:47:06;;;;;;;;;;;;;;;;;;6215650;22;19915;-91
2023/05/20 03:49:32;;;;;;;;;;;;;;;;;;6214441;22;19926;-91
2023/05/20 03:51:58;;;;;;;;;;;;;;;;;;6217125;22;19923;-91
2023/05/20 03:54:25;;;;;;;;;;;;;;;;;;6214721;22;19946;-91
2023/05/20 03:56:50;;;;;;;;;;;;;;;;;;6214927;22;19919;-91
2023/05/20 03:59:16;;;;;;;;;;;;;;;;;;6241889;22;19964;-91
2023/05/20 04:01:42;;;;;;;;;;;;;;;;;;6214780;22;20358;-91
2023/05/20 04:04:08;;;;;;;;;;;;;;;;;;6241597;22;20490;-90
2023/05/20 04:06:34;;;;;;;;;;;;;;;;;;6213690;22;20247;-90
2023/05/20 04:09:00;;;;;;;;;;;;;;;;;;6242033;22;19990;-91
2023/05/20 04:11:26;;;;;;;;;;;;;;;;;;6240707;22;20367;-91
2023/05/20 04:13:53;;;;;;;;;;;;;;;;;;6243034;22;19957;-91
2023/05/20 04:16:19;;;;;;;;;;;;;;;;;;6219084;22;19923;-91
2023/05/20 04:18:47;;;;;;;;;;;;;;;;;;6213649;22;19999;-91
2023/05/20 04:21:13;;;;;;;;;;;;;;;;;;6242481;22;19981;-91
2023/05/20 04:23:39;;;;;;;;;;;;;;;;;;6214356;22;19926;-91
2023/05/20 04:26:05;;;;;;;;;;;;;;;;;;6241129;22;20010;-90
2023/05/20 04:28:31;;;;;;;;;;;;;;;;;;6213902;22;20663;-90
2023/05/20 04:30:58;;;;;;;;;;;;;;;;;;6242577;22;19923;-91
2023/05/20 04:33:23;;;;;;;;;;;;;;;;;;6239307;22;19919;-91
2023/05/20 04:35:49;;;;;;;;;;;;;;;;;;6215488;22;19925;-90
2023/05/20 04:38:15;;;;;;;;;;;;;;;;;;6216330;22;19919;-91
2023/05/20 04:40:41;;;;;;;;;;;;;;;;;;6213615;22;19923;-91
2023/05/20 04:43:08;;;;;;;;;;;;;;;;;;6241075;22;19990;-91
2023/05/20 04:45:35;;;;;;;;;;;;;;;;;;6238471;22;19965;-91
2023/05/20 04:48:01;;;;;;;;;;;;;;;;;;6215581;22;19994;-90
2023/05/20 04:50:28;;;;;;;;;;;;;;;;;;6214287;22;19919;-91
2023/05/20 04:52:54;;;;;;;;;;;;;;;;;;6215536;22;19968;-91
2023/05/20 04:55:20;;;;;;;;;;;;;;;;;;6213255;22;20006;-90
2023/05/20 04:57:46;;;;;;;;;;;;;;;;;;6212898;22;19919;-91
2023/05/20 05:00:12;;;;;;;;;;;;;;;;;;6213890;22;19919;-91
2023/05/20 05:02:38;;;;;;;;;;;;;;;;;;6213102;22;19922;-91
2023/05/20 05:05:04;;;;;;;;;;;;;;;;;;6216680;22;20379;-92
2023/05/20 05:07:31;;;;;;;;;;;;;;;;;;6214131;22;19938;-91
2023/05/20 05:09:56;;;;;;;;;;;;;;;;;;6215552;22;19938;-91
2023/05/20 05:12:22;;;;;;;;;;;;;;;;;;6215412;22;19919;-91
2023/05/20 05:14:48;;;;;;;;;;;;;;;;;;6214881;22;19926;-91
2023/05/20 05:17:14;;;;;;;;;;;;;;;;;;6223420;22;19919;-91
2023/05/20 05:19:40;;;;;;;;;;;;;;;;;;6227482;22;19930;-90
2023/05/20 05:22:06;;;;;;;;;;;;;;;;;;6229513;22;20327;-91
2023/05/20 05:24:32;;;;;;;;;;;;;;;;;;6217107;22;19919;-92
2023/05/20 05:26:58;;;;;;;;;;;;;;;;;;6216113;22;19965;-91
2023/05/20 05:29:24;;;;;;;;;;;;;;;;;;6240259;22;19930;-91
2023/05/20 05:31:50;;;;;;;;;;;;;;;;;;6237804;22;19923;-90
2023/05/20 05:34:16;;;;;;;;;;;;;;;;;;6246951;22;19957;-90
2023/05/20 05:36:42;;;;;;;;;;;;;;;;;;6213927;22;20067;-91
2023/05/20 05:39:08;;;;;;;;;;;;;;;;;;6212440;22;19919;-91
2023/05/20 05:41:34;;;;;;;;;;;;;;;;;;6210633;22;19958;-92
2023/05/20 05:44:00;;;;;;;;;;;;;;;;;;6212302;22;19919;-92
2023/05/20 05:46:26;;;;;;;;;;;;;;;;;;6209874;22;19926;-90
2023/05/20 05:48:52;;;;;;;;;;;;;;;;;;6214499;22;19915;-91
2023/05/20 05:51:18;;;;;;;;;;;;;;;;;;6242262;22;19919;-90
2023/05/20 05:53:44;;;;;;;;;;;;;;;;;;6211786;22;20803;-90
2023/05/20 05:56:10;;;;;;;;;;;;;;;;;;6213829;22;19950;-90
2023/05/20 05:58:36;;;;;;;;;;;;;;;;;;6212302;22;19919;-91
2023/05/20 06:01:02;;;;;;;;;;;;;;;;;;6214553;22;19919;-92
2023/05/20 06:03:28;;;;;;;;;;;;;;;;;;6212890;22;19916;-91
2023/05/20 06:05:54;;;;;;;;;;;;;;;;;;6240538;22;19919;-91
2023/05/20 06:08:20;;;;;;;;;;;;;;;;;;6241539;22;19923;-91
2023/05/20 06:10:46;;;;;;;;;;;;;;;;;;6212744;22;19923;-92
2023/05/20 06:13:12;;;;;;;;;;;;;;;;;;6215430;22;19919;-91
2023/05/20 06:15:38;;;;;;;;;;;;;;;;;;6237091;22;19926;-91
2023/05/20 06:18:04;;;;;;;;;;;;;;;;;;6239774;22;19984;-91
2023/05/20 06:20:30;;;;;;;;;;;;;;;;;;6211659;22;19919;-90
2023/05/20 06:22:56;;;;;;;;;;;;;;;;;;6215096;22;19989;-91
2023/05/20 06:25:22;;;;;;;;;;;;;;;;;;6212639;22;19919;-91
2023/05/20 06:27:48;;;;;;;;;;;;;;;;;;6210376;22;20307;-91
2023/05/20 06:30:14;;;;;;;;;;;;;;;;;;6237990;22;19930;-92
2023/05/20 06:32:40;;;;;;;;;;;;;;;;;;6236048;22;19989;-91
2023/05/20 06:35:07;;;;;;;;;;;;;;;;;;6212698;22;19950;-91
2023/05/20 06:37:33;;;;;;;;;;;;;;;;;;6237927;22;19922;-91
2023/05/20 06:39:59;;;;;;;;;;;;;;;;;;6214716;22;20263;-92
2023/05/20 06:42:25;;;;;;;;;;;;;;;;;;6239267;22;19919;-91
2023/05/20 06:44:51;;;;;;;;;;;;;;;;;;6215170;22;19926;-91
2023/05/20 06:47:17;;;;;;;;;;;;;;;;;;6239517;22;20324;-91
2023/05/20 06:49:43;;;;;;;;;;;;;;;;;;6211613;22;19919;-91
2023/05/20 06:52:09;;;;;;;;;;;;;;;;;;6239872;22;20009;-91
2023/05/20 06:54:38;;;;;;;;;;;;;;;;;;6213484;22;19915;-90
2023/05/20 06:57:04;;;;;;;;;;;;;;;;;;6216757;22;20486;-90
2023/05/20 06:59:30;;;;;;;;;;;;;;;;;;6214157;22;19943;-91
2023/05/20 07:01:56;;;;;;;;;;;;;;;;;;6214810;22;19923;-91
2023/05/20 07:04:22;;;;;;;;;;;;;;;;;;6240294;22;20479;-91
2023/05/20 07:06:48;;;;;;;;;;;;;;;;;;6213351;22;19919;-92
2023/05/20 07:09:15;;;;;;;;;;;;;;;;;;6240212;22;20536;-91
2023/05/20 07:11:41;;;;;;;;;;;;;;;;;;6238670;22;19920;-91
2023/05/20 07:14:07;;;;;;;;;;;;;;;;;;6215255;22;19957;-91
2023/05/20 07:16:36;;;;;;;;;;;;;;;;;;6213747;22;19916;-92
2023/05/20 07:19:02;;;;;;;;;;;;;;;;;;6238540;22;19927;-91
2023/05/20 07:21:28;;;;;;;;;;;;;;;;;;6212376;22;19964;-92
2023/05/20 07:23:54;;;;;;;;;;;;;;;;;;6239123;22;19926;-91
2023/05/20 07:26:20;;;;;;;;;;;;;;;;;;6215137;22;19926;-91
2023/05/20 07:28:46;;;;;;;;;;;;;;;;;;6237177;22;19915;-91
2023/05/20 07:31:12;;;;;;;;;;;;;;;;;;6214732;22;20283;-91
2023/05/20 07:33:38;;;;;;;;;;;;;;;;;;6210686;22;19994;-91
2023/05/20 07:36:04;;;;;;;;;;;;;;;;;;6215552;22;19941;-91
2023/05/20 07:38:31;;;;;;;;;;;;;;;;;;6239207;22;19947;-91
2023/05/20 07:40:57;;;;;;;;;;;;;;;;;;6240324;22;19923;-91
2023/05/20 07:43:23;;;;;;;;;;;;;;;;;;6214022;22;20393;-91
2023/05/20 07:45:49;;;;;;;;;;;;;;;;;;6240058;22;20205;-91
2023/05/20 07:48:15;;;;;;;;;;;;;;;;;;6215908;22;19919;-91
2023/05/20 07:50:41;;;;;;;;;;;;;;;;;;6237412;22;19919;-91
2023/05/20 07:53:07;;;;;;;;;;;;;;;;;;6238773;22;19925;-91
2023/05/20 07:55:33;;;;;;;;;;;;;;;;;;6236017;22;19955;-91
2023/05/20 07:57:59;;;;;;;;;;;;;;;;;;6234775;22;20263;-92
2023/05/20 08:00:25;;;;;;;;;;;;;;;;;;6235889;22;19965;-84
2023/05/20 08:02:52;;;;;;;;;;;;;;;;;;6211567;22;19915;-82
2023/05/20 08:05:18;;;;;;;;;;;;;;;;;;6211449;22;19981;-82
2023/05/20 08:07:44;;;;;;;;;;;;;;;;;;6211690;22;19923;-82
2023/05/20 08:10:10;;;;;;;;;;;;;;;;;;6213425;22;19930;-82
2023/05/20 08:12:36;;;;;;;;;;;;;;;;;;6210412;22;19990;-81
2023/05/20 08:15:03;;;;;;;;;;;;;;;;;;6213445;22;19949;-82
2023/05/20 08:17:29;;;;;;;;;;;;;;;;;;6237900;22;20123;-82
2023/05/20 08:19:55;;;;;;;;;;;;;;;;;;6215890;22;20045;-82
2023/05/20 08:22:21;;;;;;;;;;;;;;;;;;6240268;22;19946;-81
2023/05/20 08:24:47;;;;;;;;;;;;;;;;;;6211754;22;19922;-81
2023/05/20 08:27:13;;;;;;;;;;;;;;;;;;6234484;22;19950;-81
2023/05/20 08:29:38;;;;;;;;;;;;;;;;;;6207749;22;19926;-81
2023/05/20 08:32:05;;;;;;;;;;;;;;;;;;6214247;22;19927;-81
2023/05/20 08:34:31;;;;;;;;;;;;;;;;;;6238318;22;19919;-81
2023/05/20 08:36:57;;;;;;;;;;;;;;;;;;6241831;22;19927;-81
2023/05/20 08:39:23;;;;;;;;;;;;;;;;;;6216450;22;19986;-81
2023/05/20 08:41:49;;;;;;;;;;;;;;;;;;6214745;22;20312;-81
2023/05/20 08:44:14;;;;;;;;;;;;;;;;;;6214821;22;19915;-81
2023/05/20 08:46:42;;;;;;;;;;;;;;;;;;6209586;22;19915;-81
2023/05/20 08:49:09;;;;;;;;;;;;;;;;;;6240732;22;19915;-81
2023/05/20 08:51:35;;;;;;;;;;;;;;;;;;6213464;22;19919;-81
2023/05/20 08:54:01;;;;;;;;;;;;;;;;;;6240183;22;20011;-81
2023/05/20 08:56:27;;;;;;;;;;;;;;;;;;6237285;22;19921;-81
2023/05/20 08:58:53;;;;;;;;;;;;;;;;;;6239581;22;20328;-81
2023/05/20 09:01:19;;;;;;;;;;;;;;;;;;6240021;22;19924;-81
2023/05/20 09:03:46;;;;;;;;;;;;;;;;;;6237657;22;19919;-82
2023/05/20 09:06:12;;;;;;;;;;;;;;;;;;6240696;22;19919;-82
2023/05/20 09:08:38;;;;;;;;;;;;;;;;;;6207556;22;20401;-81
2023/05/20 09:11:05;;;;;;;;;;;;;;;;;;6213019;22;19986;-82
2023/05/20 09:13:31;;;;;;;;;;;;;;;;;;6234096;22;19954;-82
2023/05/20 09:15:58;;;;;;;;;;;;;;;;;;6239204;22;20490;-82
2023/05/20 09:18:25;;;;;;;;;;;;;;;;;;6211931;22;19961;-82
2023/05/20 09:20:54;;;;;;;;;;;;;;;;;;6215424;22;19981;-81
2023/05/20 09:23:28;;;;;;;;;;;;;;;;;;6215036;22;19954;-81
2023/05/20 09:25:54;;;;;;;;;;;;;;;;;;6212349;22;20362;-81
2023/05/20 09:28:22;;;;;;;;;;;;;;;;;;6213966;22;19919;-81
2023/05/20 09:30:50;;;;;;;;;;;;;;;;;;6212282;22;19919;-82
2023/05/20 09:33:16;;;;;;;;;;;;;;;;;;6239579;22;19923;-85
2023/05/20 09:35:42;;;;;;;;;;;;;;;;;;6209566;22;19926;-81
2023/05/20 09:38:08;;;;;;;;;;;;;;;;;;6212599;22;19919;-81
2023/05/20 09:40:39;;;;;;;;;;;;;;;;;;6211719;22;19915;-81
2023/05/20 09:43:06;;;;;;;;;;;;;;;;;;6237639;22;19930;-81
2023/05/20 09:45:32;;;;;;;;;;;;;;;;;;6238489;22;19926;-81
2023/05/20 09:47:58;;;;;;;;;;;;;;;;;;6240296;22;19928;-81
2023/05/20 09:50:24;;;;;;;;;;;;;;;;;;6214362;22;20006;-80
2023/05/20 09:52:51;;;;;;;;;;;;;;;;;;6238628;22;19920;-81
2023/05/20 09:55:17;;;;;;;;;;;;;;;;;;6215363;22;19915;-81
2023/05/20 09:57:43;;;;;;;;;;;;;;;;;;6212101;22;19930;-81
2023/05/20 10:00:12;;;;;;;;;;;;;;;;;;6215319;22;20280;-81
2023/05/20 10:02:38;;;;;;;;;;;;;;;;;;6238189;22;19919;-81
2023/05/20 10:05:04;;;;;;;;;;;;;;;;;;6239476;22;19935;-81
2023/05/20 10:07:30;;;;;;;;;;;;;;;;;;6235787;22;19926;-81
2023/05/20 10:09:56;;;;;;;;;;;;;;;;;;6236566;22;19919;-81
2023/05/20 10:12:22;;;;;;;;;;;;;;;;;;6214840;22;20229;-81
2023/05/20 10:14:48;;;;;;;;;;;;;;;;;;6210929;22;19915;-81
2023/05/20 10:17:14;;;;;;;;;;;;;;;;;;6216238;22;19919;-81
2023/05/20 10:19:40;;;;;;;;;;;;;;;;;;6213531;22;19930;-81
2023/05/20 10:22:07;;;;;;;;;;;;;;;;;;6214359;22;19990;-81
2023/05/20 10:24:33;;;;;;;;;;;;;;;;;;6264096;22;19996;-81
2023/05/20 10:27:00;;;;;;;;;;;;;;;;;;6238929;22;19959;-81
2023/05/20 10:29:26;;;;;;;;;;;;;;;;;;6237634;22;19983;-81
2023/05/20 10:31:52;;;;;;;;;;;;;;;;;;6265254;22;19959;-81
2023/05/20 10:34:18;;;;;;;;;;;;;;;;;;6238640;22;19928;-81
2023/05/20 10:36:44;;;;;;;;;;;;;;;;;;6237241;22;20448;-82
2023/05/20 10:39:09;;;;;;;;;;;;;;;;;;6239524;22;20336;-81
2023/05/20 10:41:36;;;;;;;;;;;;;;;;;;6212558;22;19942;-83
2023/05/20 10:44:02;;;;;;;;;;;;;;;;;;6236111;22;19915;-81
2023/05/20 10:46:28;;;;;;;;;;;;;;;;;;6235877;22;19950;-81
2023/05/20 10:48:54;;;;;;;;;;;;;;;;;;6211971;22;19926;-81
2023/05/20 10:51:20;;;;;;;;;;;;;;;;;;6239817;22;20010;-81
2023/05/20 10:53:46;;;;;;;;;;;;;;;;;;6211348;22;19926;-81
2023/05/20 10:56:12;;;;;;;;;;;;;;;;;;6214090;22;19919;-81
2023/05/20 10:58:38;;;;;;;;;;;;;;;;;;6235842;22;19919;-81
2023/05/20 11:01:03;;;;;;;;;;;;;;;;;;6238497;22;19966;-83
2023/05/20 11:03:29;;;;;;;;;;;;;;;;;;6211557;22;20251;-81
2023/05/20 11:05:55;;;;;;;;;;;;;;;;;;6238017;22;20244;-81
2023/05/20 11:08:21;;;;;;;;;;;;;;;;;;6240683;22;20295;-91
2023/05/20 11:10:47;;;;;;;;;;;;;;;;;;6217348;22;19926;-93
2023/05/20 11:13:14;;;;;;;;;;;;;;;;;;6220715;22;20002;-95
2023/05/20 11:15:40;;;;;;;;;;;;;;;;;;6241593;22;20221;-93
2023/05/20 11:18:06;;;;;;;;;;;;;;;;;;6220198;22;20283;-94
2023/05/20 11:20:35;;;;;;;;;;;;;;;;;;6218769;22;20320;-94
2023/05/20 11:23:02;;;;;;;;;;;;;;;;;;6246021;22;19993;-94
2023/05/20 11:25:28;;;;;;;;;;;;;;;;;;6216694;22;19922;-94
2023/05/20 11:27:54;;;;;;;;;;;;;;;;;;6218907;22;19919;-94
2023/05/20 11:30:20;;;;;;;;;;;;;;;;;;6219275;22;20217;-94
2023/05/20 11:32:46;;;;;;;;;;;;;;;;;;6217261;22;19926;-93
2023/05/20 11:35:12;;;;;;;;;;;;;;;;;;6219551;22;19969;-95
2023/05/20 11:37:38;;;;;;;;;;;;;;;;;;6242988;22;19998;-96
2023/05/20 11:40:07;;;;;;;;;;;;;;;;;;6245486;22;19954;-95
2023/05/20 11:42:33;;;;;;;;;;;;;;;;;;6217929;22;19969;-94
2023/05/20 11:44:59;;;;;;;;;;;;;;;;;;6244463;22;19954;-95
2023/05/20 11:47:28;;;;;;;;;;;;;;;;;;6217097;22;19919;-95
2023/05/20 11:49:54;;;;;;;;;;;;;;;;;;6211922;22;20101;-83
2023/05/20 11:52:20;;;;;;;;;;;;;;;;;;6217353;22;19926;-83
2023/05/20 11:54:46;;;;;;;;;;;;;;;;;;6214948;22;19915;-83
2023/05/20 11:57:12;;;;;;;;;;;;;;;;;;6215091;22;19977;-84
2023/05/20 11:59:38;;;;;;;;;;;;;;;;;;6215582;22;19925;-83
2023/05/20 12:02:04;;;;;;;;;;;;;;;;;;6241814;22;20605;-83
2023/05/20 12:04:30;;;;;;;;;;;;;;;;;;6209905;22;19945;-83
2023/05/20 12:06:56;;;;;;;;;;;;;;;;;;6216974;22;19926;-83
2023/05/20 12:09:23;;;;;;;;;;;;;;;;;;6239456;22;19919;-83
2023/05/20 12:11:49;;;;;;;;;;;;;;;;;;6215236;22;19931;-83
2023/05/20 12:14:15;;;;;;;;;;;;;;;;;;6214877;22;19951;-83
2023/05/20 12:16:41;;;;;;;;;;;;;;;;;;6213132;22;19920;-83
2023/05/20 12:28:59;;;;;;;5.28;1.90;;;;;;;;;;5086976;27;20129;-83
2023/05/20 12:50:17;;;;;;;3.90;1.70;;;;;;;;;;5126480;27;20410;-83
2023/05/20 12:52:44;;;;;;;5.70;1.67;;;;;;;;;;5064010;27;20118;-83
2023/05/20 12:55:12;;;;;;;7.90;1.70;;;;;;;;;;5078897;27;20080;-83
2023/05/20 12:57:45;;;;;;;2.03;1.70;;;;;;;;;;5057275;27;20122;-82
2023/05/20 13:00:12;;;;;;;2.92;1.30;;;;;;;;;;5087835;27;20399;-83
2023/05/20 13:02:38;;;;;;;3.65;1.30;;;;;;;;;;5064251;27;20114;-83
2023/05/20 13:05:05;;;;;;;2.30;1.60;;;;;;;;;;5074482;27;20199;-83
2023/05/20 13:07:31;;;;;;;2.92;1.60;;;;;;;;;;5051421;27;20047;-83
2023/05/20 13:09:57;;;;;;;5.20;1.65;;;;;;;;;;5109685;27;20369;-83
2023/05/20 13:12:24;;;;;;;3.75;1.80;;;;;;;;;;5075355;27;20444;-81
2023/05/20 13:14:51;;;;;;;2.47;1.60;;;;;;;;;;5099927;27;20042;-82
2023/05/20 13:17:17;;;;;;;2.67;1.83;;;;;;;;;;5085740;27;20107;-82
2023/05/20 13:19:45;;;;;;;3.70;1.63;;;;;;;;;;5062792;27;22924;-82
2023/05/20 13:22:11;;;;;;;1.83;1.65;;;;;;;;;;5090382;28;20055;-82
2023/05/20 13:24:37;;;;;;;2.92;1.45;;;;;;;;;;5056222;27;20422;-83
2023/05/20 13:27:04;;;;;;;4.55;1.58;;;;;;;;;;5098941;27;20539;-82
2023/05/20 13:29:30;;;;;;;2.45;1.67;;;;;;;;;;5059113;27;20487;-83
2023/05/20 13:31:56;;;;;;;3.95;1.80;;;;;;;;;;5092023;28;20066;-82
2023/05/20 13:34:22;;;;;;;3.55;1.88;;;;;;;;;;5088269;27;20205;-83
2023/05/20 13:36:49;;;;;;;2.17;1.60;;;;;;;;;;5089036;27;20492;-83
2023/05/20 13:39:15;;;;;;;12.10;2.08;;;;;;;;;;5089147;27;20450;-82
2023/05/20 13:41:41;;;;;;;4.80;1.55;;;;;;;;;;5074108;27;20039;-82
2023/05/20 13:44:08;;;;;;;6.28;2.38;;;;;;;;;;5083345;27;20073;-83
2023/05/20 13:46:34;;;;;;;3.65;1.83;;;;;;;;;;5079216;27;20032;-83
2023/05/20 13:49:01;;;;;;;4.70;1.40;;;;;;;;;;5101510;27;20051;-83
2023/05/20 13:51:27;;;;;;;6.72;1.70;;;;;;;;;;5055917;28;20050;-82
2023/05/20 13:53:53;;;;;;;5.88;1.70;;;;;;;;;;5051436;28;20043;-83
2023/05/20 13:56:19;;;;;;;5.68;1.60;;;;;;;;;;5069624;28;20044;-83
2023/05/20 13:58:46;;;;;;;6.15;1.77;;;;;;;;;;5028401;27;20496;-82
2023/05/20 14:01:12;;;;;;;9.25;6.28;;;;;;;;;;5066396;28;20066;-82
2023/05/20 14:03:39;;;;;;;1.98;1.35;;;;;;;;;;5032370;28;20420;-83
2023/05/20 14:06:05;;;;;;;7.03;1.35;;;;;;;;;;5047877;28;20065;-82
2023/05/20 14:08:31;;;;;;;3.65;1.80;;;;;;;;;;5077572;28;20054;-83
2023/05/20 14:10:57;;;;;;;3.00;1.92;;;;;;;;;;5056301;28;20082;-83
2023/05/20 14:13:24;;;;;;;3.33;1.55;;;;;;;;;;5058112;28;20388;-82
2023/05/20 14:15:50;;;;;;;3.03;1.98;;;;;;;;;;5049722;28;20506;-83
2023/05/20 14:18:20;;;;;;;2.08;1.70;;;;;;;;;;5050505;28;20051;-85
2023/05/20 14:20:46;;;;;;;3.72;1.85;;;;;;;;;;5036327;28;20045;-83
2023/05/20 14:23:12;;;;;;;4.38;1.90;;;;;;;;;;5058389;28;20070;-83
2023/05/20 14:25:38;;;;;;;4.85;1.90;;;;;;;;;;5048349;28;20039;-83
2023/05/20 14:28:04;;;;;;;4.20;2.08;;;;;;;;;;5053044;28;20035;-83
2023/05/20 14:30:30;;;;;;;4.28;1.77;;;;;;;;;;5032340;28;20453;-83
2023/05/20 14:32:56;;;;;;;3.03;1.77;;;;;;;;;;5041326;28;20043;-82
2023/05/20 14:35:22;;;;;;;4.95;1.80;;;;;;;;;;5050588;27;20037;-82
2023/05/20 14:37:49;;;;;;;4.15;1.88;;;;;;;;;;5055148;28;20709;-82
2023/05/20 14:40:15;;;;;;;4.22;1.55;;;;;;;;;;5039603;28;20044;-83
2023/05/20 14:42:41;;;;;;;3.88;2.45;;;;;;;;;;5087844;27;20042;-83
2023/05/20 14:45:07;;;;;;;5.53;1.90;;;;;;;;;;5071975;27;20064;-82
2023/05/20 14:47:33;;;;;;;4.38;1.95;;;;;;;;;;5041293;28;20571;-82
2023/05/20 14:50:00;;;;;;;3.97;1.90;;;;;;;;;;5070800;28;20113;-83
2023/05/20 14:52:29;;;;;;;3.40;2.05;;;;;;;;;;5039596;28;20048;-83
2023/05/20 14:54:55;;;;;;;3.63;2.10;;;;;;;;;;5044094;28;20357;-82
2023/05/20 14:57:21;;;;;;;3.63;1.98;;;;;;;;;;5042033;27;20384;-83
2023/05/20 14:59:49;;;;;;;3.75;1.90;;;;;;;;;;5041503;28;20143;-82
2023/05/20 15:02:15;;;;;;;;;;;;;;;;;;5058159;28;20044;-83
2023/05/20 15:04:45;;;;;;;5.22;1.80;;;;;;;;;;5068598;28;19919;-82
2023/05/20 15:07:11;;;;;;;2.10;1.63;;;;;;;;;;5055462;28;20487;-82
2023/05/20 15:09:37;;;;;;;2.80;1.80;;;;;;;;;;5054863;28;20541;-83
2023/05/20 15:12:03;;;;;;;2.45;1.60;;;;;;;;;;5090423;27;20132;-82
2023/05/20 15:14:29;;;;;;;2.20;1.70;;;;;;;;;;5036534;28;20066;-83
2023/05/20 15:16:55;;;;;;;2.70;1.50;;;;;;;;;;5081838;28;20069;-82
2023/05/20 15:19:21;;;;;;;5.38;1.65;;;;;;;;;;5031644;28;20054;-83
2023/05/20 15:21:50;;;;;;;4.35;1.92;;;;;;;;;;5053095;28;20043;-80
2023/05/20 15:31:15;;;;;;;5.43;1.65;;;;;;;;;;5155708;22;20098;-80
2023/05/20 15:33:50;;;;;;;1.92;1.80;;;;;;;;;;5000799;28;20915;-80
2023/05/20 15:36:17;;;;;;;3.00;2.00;;;;;;;;;;5000181;28;20040;-80
2023/05/20 15:38:43;;;;;;;3.90;1.98;;;;;;;;;;5017028;28;22023;-80
2023/05/20 15:41:12;;;;;;;5.35;1.95;;;;;;;;;;5002567;28;20043;-80
2023/05/20 15:43:38;;;;;;;3.80;1.60;;;;;;;;;;4997550;28;20036;-81
2023/05/20 15:46:05;;;;;;;2.97;1.88;;;;;;;;;;5006617;28;20040;-81
2023/05/20 15:48:33;;;;;;;5.10;1.95;;;;;;;;;;5011202;28;20113;-81
2023/05/20 15:51:00;;;;;;;2.85;2.00;;;;;;;;;;5011789;28;20523;-81
2023/05/20 15:53:26;;;;;;;4.70;2.03;;;;;;;;;;5010751;28;20056;-81
2023/05/20 15:55:52;;;;;;;4.15;2.15;;;;;;;;;;4981178;28;20074;-81
2023/05/20 15:58:18;;;;;;;2.90;1.80;;;;;;;;;;4996039;28;20077;-81
2023/05/20 16:00:44;;;;;;;4.65;1.58;;;;;;;;;;4990515;28;20128;-81
2023/05/20 16:03:10;;;;;;;2.05;1.77;;;;;;;;;;4979001;28;20392;-81
2023/05/20 16:05:37;;;;;;;4.57;2.10;;;;;;;;;;4973546;28;20176;-81
2023/05/20 16:08:04;;;;;;;3.90;1.80;;;;;;;;;;4998680;28;20036;-81
2023/05/20 16:10:33;;;;;;;3.17;1.95;;;;;;;;;;4974968;28;20052;-81
2023/05/20 16:13:02;;;;;;;2.95;1.70;;;;;;;;;;4981616;28;20099;-81
2023/05/20 16:15:35;;;;;;;3.60;1.83;;;;;;;;;;5007681;28;20037;-81
2023/05/20 16:18:01;;;;;;;3.60;1.80;;;;;;;;;;4996825;28;20083;-81
2023/05/20 16:20:27;;;;;;;6.50;1.58;;;;;;;;;;4992240;28;20580;-81
2023/05/20 16:22:53;;;;;;;2.67;2.03;;;;;;;;;;5009195;28;20037;-81
2023/05/20 16:25:19;;;;;;;3.50;2.00;;;;;;;;;;4997093;28;20064;-81
2023/05/20 16:27:45;;;;;;;2.30;1.88;;;;;;;;;;4987229;28;20065;-81
2023/05/20 16:30:12;;;;;;;4.15;1.60;;;;;;;;;;4996086;28;20150;-81
2023/05/20 16:33:07;;;;;;;2.30;1.60;;;;;;;;;;4991582;28;20060;-81
2023/05/20 16:35:36;;;;;;;3.13;1.70;;;;;;;;;;5007715;28;20036;-81
2023/05/20 16:38:04;;;;;;;2.67;1.85;;;;;;;;;;4996440;28;20049;-81
2023/05/20 16:40:31;;;;;;;3.60;1.60;;;;;;;;;;4992985;28;20068;-81
2023/05/20 16:42:57;;;;;;;2.78;1.65;;;;;;;;;;4995979;28;20405;-80